sensor_id;sensor_type;location;lat;lon;timestamp;P1;durP1;ratioP1;P2;durP2;ratioP2
19861;SDS011;10093;48.148;8.542;2023-02-12T00:00:47;32.35;;;16.38;;
19861;SDS011;10093;48.148;8.542;2023-02-12T00:03:13;42.15;;;20.85;;
19861;SDS011;10093;48.148;8.542;2023-02-12T00:05:39;33.92;;;17.90;;
19861;SDS011;10093;48.148;8.542;2023-02-12T00:08:06;34.33;;;17.52;;
19861;SDS011;10093;48.148;8.542;2023-02-12T00:10:33;33.58;;;16.55;;
19861;SDS011;10093;48.148;8.542;2023-02-12T00:12:58;28.70;;;15.85;;
19861;SDS011;10093;48.148;8.542;2023-02-12T00:15:24;34.53;;;17.27;;
19861;SDS011;10093;48.148;8.542;2023-02-12T00:17:50;36.20;;;17.98;;
19861;SDS011;10093;48.148;8.542;2023-02-12T00:20:15;35.58;;;17.30;;
19861;SDS011;10093;48.148;8.542;2023-02-12T00:22:41;36.20;;;17.42;;
19861;SDS011;10093;48.148;8.542;2023-02-12T00:25:07;34.20;;;17.83;;
19861;SDS011;10093;48.148;8.542;2023-02-12T00:27:33;29.95;;;17.02;;
19861;SDS011;10093;48.148;8.542;2023-02-12T00:29:59;31.67;;;16.83;;
19861;SDS011;10093;48.148;8.542;2023-02-12T00:32:24;27.42;;;15.40;;
19861;SDS011;10093;48.148;8.542;2023-02-12T00:34:50;30.13;;;16.13;;
19861;SDS011;10093;48.148;8.542;2023-02-12T00:37:16;31.27;;;15.15;;
19861;SDS011;10093;48.148;8.542;2023-02-12T00:39:41;30.27;;;15.95;;
19861;SDS011;10093;48.148;8.542;2023-02-12T00:42:07;31.50;;;15.88;;
19861;SDS011;10093;48.148;8.542;2023-02-12T00:44:33;30.27;;;15.55;;
19861;SDS011;10093;48.148;8.542;2023-02-12T00:46:59;30.30;;;15.85;;
19861;SDS011;10093;48.148;8.542;2023-02-12T00:49:28;33.38;;;16.13;;
19861;SDS011;10093;48.148;8.542;2023-02-12T00:51:58;32.40;;;17.55;;
19861;SDS011;10093;48.148;8.542;2023-02-12T00:54:24;34.65;;;17.15;;
19861;SDS011;10093;48.148;8.542;2023-02-12T00:56:50;28.85;;;16.38;;
19861;SDS011;10093;48.148;8.542;2023-02-12T00:59:15;35.85;;;17.33;;
19861;SDS011;10093;48.148;8.542;2023-02-12T01:01:41;31.58;;;16.20;;
19861;SDS011;10093;48.148;8.542;2023-02-12T01:04:06;28.75;;;16.40;;
19861;SDS011;10093;48.148;8.542;2023-02-12T01:06:32;34.08;;;17.17;;
19861;SDS011;10093;48.148;8.542;2023-02-12T01:08:58;31.35;;;16.60;;
19861;SDS011;10093;48.148;8.542;2023-02-12T01:11:23;32.25;;;16.77;;
19861;SDS011;10093;48.148;8.542;2023-02-12T01:13:49;29.70;;;16.35;;
19861;SDS011;10093;48.148;8.542;2023-02-12T01:16:16;31.27;;;15.90;;
19861;SDS011;10093;48.148;8.542;2023-02-12T01:18:44;33.05;;;17.08;;
19861;SDS011;10093;48.148;8.542;2023-02-12T01:21:11;31.33;;;17.42;;
19861;SDS011;10093;48.148;8.542;2023-02-12T01:23:39;30.50;;;16.38;;
19861;SDS011;10093;48.148;8.542;2023-02-12T01:26:05;38.35;;;17.42;;
19861;SDS011;10093;48.148;8.542;2023-02-12T01:28:34;31.25;;;15.90;;
19861;SDS011;10093;48.148;8.542;2023-02-12T01:31:00;30.30;;;16.85;;
19861;SDS011;10093;48.148;8.542;2023-02-12T01:33:29;31.33;;;16.90;;
19861;SDS011;10093;48.148;8.542;2023-02-12T01:35:55;32.60;;;16.73;;
19861;SDS011;10093;48.148;8.542;2023-02-12T01:38:20;29.70;;;15.63;;
19861;SDS011;10093;48.148;8.542;2023-02-12T01:40:46;29.48;;;15.25;;
19861;SDS011;10093;48.148;8.542;2023-02-12T01:43:11;27.63;;;14.13;;
19861;SDS011;10093;48.148;8.542;2023-02-12T01:45:44;30.73;;;15.95;;
19861;SDS011;10093;48.148;8.542;2023-02-12T01:48:12;30.48;;;15.45;;
19861;SDS011;10093;48.148;8.542;2023-02-12T01:50:41;25.25;;;15.13;;
19861;SDS011;10093;48.148;8.542;2023-02-12T01:53:08;29.67;;;16.17;;
19861;SDS011;10093;48.148;8.542;2023-02-12T01:55:34;27.35;;;15.65;;
19861;SDS011;10093;48.148;8.542;2023-02-12T01:57:59;31.48;;;16.55;;
19861;SDS011;10093;48.148;8.542;2023-02-12T02:00:25;32.30;;;16.00;;
19861;SDS011;10093;48.148;8.542;2023-02-12T02:02:52;27.42;;;15.32;;
19861;SDS011;10093;48.148;8.542;2023-02-12T02:05:41;32.88;;;17.15;;
19861;SDS011;10093;48.148;8.542;2023-02-12T02:08:11;30.48;;;16.38;;
19861;SDS011;10093;48.148;8.542;2023-02-12T02:10:37;32.40;;;16.27;;
19861;SDS011;10093;48.148;8.542;2023-02-12T02:13:03;31.65;;;16.70;;
19861;SDS011;10093;48.148;8.542;2023-02-12T02:15:48;29.73;;;16.17;;
19861;SDS011;10093;48.148;8.542;2023-02-12T02:30:59;26.92;;;15.63;;
19861;SDS011;10093;48.148;8.542;2023-02-12T02:33:11;29.48;;;15.23;;
19861;SDS011;10093;48.148;8.542;2023-02-12T02:35:53;29.13;;;15.85;;
19861;SDS011;10093;48.148;8.542;2023-02-12T02:38:54;29.15;;;15.05;;
19861;SDS011;10093;48.148;8.542;2023-02-12T02:41:29;28.98;;;14.55;;
19861;SDS011;10093;48.148;8.542;2023-02-12T02:43:57;26.77;;;14.32;;
19861;SDS011;10093;48.148;8.542;2023-02-12T02:46:46;27.30;;;15.32;;
19861;SDS011;10093;48.148;8.542;2023-02-12T02:49:16;27.80;;;15.65;;
19861;SDS011;10093;48.148;8.542;2023-02-12T02:51:48;32.75;;;15.40;;
19861;SDS011;10093;48.148;8.542;2023-02-12T02:54:20;28.02;;;15.10;;
19861;SDS011;10093;48.148;8.542;2023-02-12T02:56:54;28.98;;;15.60;;
19861;SDS011;10093;48.148;8.542;2023-02-12T02:59:26;27.42;;;14.98;;
19861;SDS011;10093;48.148;8.542;2023-02-12T03:02:00;24.07;;;13.63;;
19861;SDS011;10093;48.148;8.542;2023-02-12T03:04:34;27.60;;;14.95;;
19861;SDS011;10093;48.148;8.542;2023-02-12T03:07:05;32.22;;;15.48;;
19861;SDS011;10093;48.148;8.542;2023-02-12T03:12:30;28.98;;;14.98;;
19861;SDS011;10093;48.148;8.542;2023-02-12T03:15:06;25.77;;;15.18;;
19861;SDS011;10093;48.148;8.542;2023-02-12T03:17:40;23.75;;;14.02;;
19861;SDS011;10093;48.148;8.542;2023-02-12T03:20:11;25.20;;;13.98;;
19861;SDS011;10093;48.148;8.542;2023-02-12T03:23:26;28.52;;;15.35;;
19861;SDS011;10093;48.148;8.542;2023-02-12T03:25:48;26.38;;;15.02;;
19861;SDS011;10093;48.148;8.542;2023-02-12T03:28:26;27.42;;;15.60;;
19861;SDS011;10093;48.148;8.542;2023-02-12T03:42:26;28.13;;;15.60;;
19861;SDS011;10093;48.148;8.542;2023-02-12T03:45:44;25.98;;;14.68;;
19861;SDS011;10093;48.148;8.542;2023-02-12T03:47:56;25.73;;;15.05;;
19861;SDS011;10093;48.148;8.542;2023-02-12T03:50:33;28.40;;;13.82;;
19861;SDS011;10093;48.148;8.542;2023-02-12T03:53:04;27.40;;;15.40;;
19861;SDS011;10093;48.148;8.542;2023-02-12T03:55:31;29.30;;;15.38;;
19861;SDS011;10093;48.148;8.542;2023-02-12T03:58:00;25.40;;;14.82;;
19861;SDS011;10093;48.148;8.542;2023-02-12T04:00:29;30.30;;;16.02;;
19861;SDS011;10093;48.148;8.542;2023-02-12T04:02:55;26.85;;;14.15;;
19861;SDS011;10093;48.148;8.542;2023-02-12T04:05:22;27.98;;;14.35;;
19861;SDS011;10093;48.148;8.542;2023-02-12T04:07:49;27.85;;;14.65;;
19861;SDS011;10093;48.148;8.542;2023-02-12T04:10:17;26.55;;;14.23;;
19861;SDS011;10093;48.148;8.542;2023-02-12T04:15:40;24.25;;;13.68;;
19861;SDS011;10093;48.148;8.542;2023-02-12T04:32:18;28.13;;;14.32;;
19861;SDS011;10093;48.148;8.542;2023-02-12T04:37:15;27.85;;;14.50;;
19861;SDS011;10093;48.148;8.542;2023-02-12T04:39:44;24.02;;;14.07;;
19861;SDS011;10093;48.148;8.542;2023-02-12T04:42:12;25.83;;;14.52;;
19861;SDS011;10093;48.148;8.542;2023-02-12T04:44:38;27.75;;;15.05;;
19861;SDS011;10093;48.148;8.542;2023-02-12T04:47:05;24.85;;;13.88;;
19861;SDS011;10093;48.148;8.542;2023-02-12T04:49:30;26.20;;;14.52;;
19861;SDS011;10093;48.148;8.542;2023-02-12T04:51:56;24.83;;;14.27;;
19861;SDS011;10093;48.148;8.542;2023-02-12T04:54:22;25.63;;;14.38;;
19861;SDS011;10093;48.148;8.542;2023-02-12T04:56:48;24.08;;;13.65;;
19861;SDS011;10093;48.148;8.542;2023-02-12T04:59:14;23.20;;;13.13;;
19861;SDS011;10093;48.148;8.542;2023-02-12T05:01:40;25.30;;;13.75;;
19861;SDS011;10093;48.148;8.542;2023-02-12T05:04:07;23.63;;;13.52;;
19861;SDS011;10093;48.148;8.542;2023-02-12T05:06:35;21.83;;;13.25;;
19861;SDS011;10093;48.148;8.542;2023-02-12T05:09:02;22.08;;;12.90;;
19861;SDS011;10093;48.148;8.542;2023-02-12T05:11:28;18.85;;;11.63;;
19861;SDS011;10093;48.148;8.542;2023-02-12T05:13:54;23.83;;;12.77;;
19861;SDS011;10093;48.148;8.542;2023-02-12T05:16:20;22.83;;;13.10;;
19861;SDS011;10093;48.148;8.542;2023-02-12T05:18:46;20.08;;;12.30;;
19861;SDS011;10093;48.148;8.542;2023-02-12T05:21:12;23.17;;;13.23;;
19861;SDS011;10093;48.148;8.542;2023-02-12T05:23:38;20.45;;;11.23;;
19861;SDS011;10093;48.148;8.542;2023-02-12T05:26:09;20.70;;;11.38;;
19861;SDS011;10093;48.148;8.542;2023-02-12T05:28:40;19.70;;;11.52;;
19861;SDS011;10093;48.148;8.542;2023-02-12T05:31:06;22.85;;;11.88;;
19861;SDS011;10093;48.148;8.542;2023-02-12T05:33:34;21.58;;;12.60;;
19861;SDS011;10093;48.148;8.542;2023-02-12T05:36:03;20.83;;;11.85;;
19861;SDS011;10093;48.148;8.542;2023-02-12T05:38:30;22.50;;;12.65;;
19861;SDS011;10093;48.148;8.542;2023-02-12T05:41:03;20.58;;;12.75;;
19861;SDS011;10093;48.148;8.542;2023-02-12T05:43:30;21.40;;;12.90;;
19861;SDS011;10093;48.148;8.542;2023-02-12T05:46:00;21.25;;;12.70;;
19861;SDS011;10093;48.148;8.542;2023-02-12T05:48:26;24.70;;;12.70;;
19861;SDS011;10093;48.148;8.542;2023-02-12T05:50:52;17.55;;;11.35;;
19861;SDS011;10093;48.148;8.542;2023-02-12T05:53:18;22.45;;;12.52;;
19861;SDS011;10093;48.148;8.542;2023-02-12T05:55:44;21.63;;;11.88;;
19861;SDS011;10093;48.148;8.542;2023-02-12T05:58:10;24.05;;;13.15;;
19861;SDS011;10093;48.148;8.542;2023-02-12T06:00:36;22.90;;;12.98;;
19861;SDS011;10093;48.148;8.542;2023-02-12T06:03:01;25.27;;;13.38;;
19861;SDS011;10093;48.148;8.542;2023-02-12T06:05:27;24.00;;;13.05;;
19861;SDS011;10093;48.148;8.542;2023-02-12T06:07:52;25.50;;;14.35;;
19861;SDS011;10093;48.148;8.542;2023-02-12T06:10:18;26.55;;;14.57;;
19861;SDS011;10093;48.148;8.542;2023-02-12T06:12:44;25.23;;;13.48;;
19861;SDS011;10093;48.148;8.542;2023-02-12T06:15:09;26.15;;;14.30;;
19861;SDS011;10093;48.148;8.542;2023-02-12T06:17:35;26.05;;;14.10;;
19861;SDS011;10093;48.148;8.542;2023-02-12T06:20:00;27.23;;;14.35;;
19861;SDS011;10093;48.148;8.542;2023-02-12T06:22:26;26.65;;;14.20;;
19861;SDS011;10093;48.148;8.542;2023-02-12T06:24:52;26.02;;;14.65;;
19861;SDS011;10093;48.148;8.542;2023-02-12T06:27:18;20.80;;;11.93;;
19861;SDS011;10093;48.148;8.542;2023-02-12T06:29:44;28.40;;;15.40;;
19861;SDS011;10093;48.148;8.542;2023-02-12T06:32:09;30.17;;;16.25;;
19861;SDS011;10093;48.148;8.542;2023-02-12T06:34:37;29.20;;;16.45;;
19861;SDS011;10093;48.148;8.542;2023-02-12T06:37:03;29.58;;;16.25;;
19861;SDS011;10093;48.148;8.542;2023-02-12T06:39:29;26.63;;;15.50;;
19861;SDS011;10093;48.148;8.542;2023-02-12T06:41:54;30.02;;;14.73;;
19861;SDS011;10093;48.148;8.542;2023-02-12T06:44:20;31.70;;;15.90;;
19861;SDS011;10093;48.148;8.542;2023-02-12T06:46:46;29.80;;;16.00;;
19861;SDS011;10093;48.148;8.542;2023-02-12T06:49:11;27.90;;;15.10;;
19861;SDS011;10093;48.148;8.542;2023-02-12T06:51:38;31.58;;;15.65;;
19861;SDS011;10093;48.148;8.542;2023-02-12T06:54:09;33.83;;;16.70;;
19861;SDS011;10093;48.148;8.542;2023-02-12T06:56:37;29.08;;;16.73;;
19861;SDS011;10093;48.148;8.542;2023-02-12T06:59:02;30.80;;;16.45;;
19861;SDS011;10093;48.148;8.542;2023-02-12T07:01:28;27.27;;;17.00;;
19861;SDS011;10093;48.148;8.542;2023-02-12T07:03:56;36.78;;;20.83;;
19861;SDS011;10093;48.148;8.542;2023-02-12T07:06:23;38.45;;;20.25;;
19861;SDS011;10093;48.148;8.542;2023-02-12T07:08:49;43.08;;;23.75;;
19861;SDS011;10093;48.148;8.542;2023-02-12T07:11:14;27.88;;;16.08;;
19861;SDS011;10093;48.148;8.542;2023-02-12T07:13:42;27.80;;;15.50;;
19861;SDS011;10093;48.148;8.542;2023-02-12T07:16:10;31.08;;;17.80;;
19861;SDS011;10093;48.148;8.542;2023-02-12T07:18:40;36.50;;;20.20;;
19861;SDS011;10093;48.148;8.542;2023-02-12T07:21:07;37.10;;;19.70;;
19861;SDS011;10093;48.148;8.542;2023-02-12T07:23:34;33.95;;;18.38;;
19861;SDS011;10093;48.148;8.542;2023-02-12T07:26:01;29.92;;;16.85;;
19861;SDS011;10093;48.148;8.542;2023-02-12T07:28:31;24.05;;;14.88;;
19861;SDS011;10093;48.148;8.542;2023-02-12T07:31:05;21.40;;;13.52;;
19861;SDS011;10093;48.148;8.542;2023-02-12T07:33:32;26.60;;;13.85;;
19861;SDS011;10093;48.148;8.542;2023-02-12T07:36:02;25.60;;;14.30;;
19861;SDS011;10093;48.148;8.542;2023-02-12T07:38:29;27.88;;;15.77;;
19861;SDS011;10093;48.148;8.542;2023-02-12T07:40:55;36.95;;;24.23;;
19861;SDS011;10093;48.148;8.542;2023-02-12T07:43:30;36.08;;;21.17;;
19861;SDS011;10093;48.148;8.542;2023-02-12T07:45:58;29.60;;;17.10;;
19861;SDS011;10093;48.148;8.542;2023-02-12T07:48:30;23.35;;;13.27;;
19861;SDS011;10093;48.148;8.542;2023-02-12T07:50:56;27.25;;;17.13;;
19861;SDS011;10093;48.148;8.542;2023-02-12T07:53:21;28.65;;;16.85;;
19861;SDS011;10093;48.148;8.542;2023-02-12T07:55:47;25.65;;;16.60;;
19861;SDS011;10093;48.148;8.542;2023-02-12T07:58:13;26.20;;;15.20;;
19861;SDS011;10093;48.148;8.542;2023-02-12T08:00:38;25.27;;;14.52;;
19861;SDS011;10093;48.148;8.542;2023-02-12T08:03:04;24.23;;;12.73;;
19861;SDS011;10093;48.148;8.542;2023-02-12T08:05:29;23.15;;;13.55;;
19861;SDS011;10093;48.148;8.542;2023-02-12T08:07:55;22.58;;;13.45;;
19861;SDS011;10093;48.148;8.542;2023-02-12T08:10:21;19.05;;;11.88;;
19861;SDS011;10093;48.148;8.542;2023-02-12T08:12:47;20.90;;;11.85;;
19861;SDS011;10093;48.148;8.542;2023-02-12T08:15:13;16.95;;;10.93;;
19861;SDS011;10093;48.148;8.542;2023-02-12T08:17:38;22.65;;;14.05;;
19861;SDS011;10093;48.148;8.542;2023-02-12T08:20:06;23.63;;;12.82;;
19861;SDS011;10093;48.148;8.542;2023-02-12T08:22:32;20.35;;;12.45;;
19861;SDS011;10093;48.148;8.542;2023-02-12T08:24:57;18.75;;;11.90;;
19861;SDS011;10093;48.148;8.542;2023-02-12T08:27:23;17.30;;;11.00;;
19861;SDS011;10093;48.148;8.542;2023-02-12T08:29:48;16.30;;;10.30;;
19861;SDS011;10093;48.148;8.542;2023-02-12T08:32:14;17.85;;;10.23;;
19861;SDS011;10093;48.148;8.542;2023-02-12T08:34:41;16.17;;;10.10;;
19861;SDS011;10093;48.148;8.542;2023-02-12T08:37:06;15.23;;;8.77;;
19861;SDS011;10093;48.148;8.542;2023-02-12T08:39:32;13.85;;;8.85;;
19861;SDS011;10093;48.148;8.542;2023-02-12T08:41:58;13.25;;;8.82;;
19861;SDS011;10093;48.148;8.542;2023-02-12T08:44:25;15.25;;;8.23;;
19861;SDS011;10093;48.148;8.542;2023-02-12T08:46:51;13.18;;;8.73;;
19861;SDS011;10093;48.148;8.542;2023-02-12T08:49:21;14.70;;;9.48;;
19861;SDS011;10093;48.148;8.542;2023-02-12T08:51:51;12.68;;;8.00;;
19861;SDS011;10093;48.148;8.542;2023-02-12T08:54:19;11.68;;;7.90;;
19861;SDS011;10093;48.148;8.542;2023-02-12T08:56:47;11.18;;;7.82;;
19861;SDS011;10093;48.148;8.542;2023-02-12T08:59:13;13.68;;;8.50;;
19861;SDS011;10093;48.148;8.542;2023-02-12T09:01:40;11.82;;;8.30;;
19861;SDS011;10093;48.148;8.542;2023-02-12T09:04:06;11.40;;;7.87;;
19861;SDS011;10093;48.148;8.542;2023-02-12T09:06:33;8.63;;;6.20;;
19861;SDS011;10093;48.148;8.542;2023-02-12T09:08:59;10.05;;;6.70;;
19861;SDS011;10093;48.148;8.542;2023-02-12T09:11:26;8.63;;;5.68;;
19861;SDS011;10093;48.148;8.542;2023-02-12T09:13:56;7.95;;;5.35;;
19861;SDS011;10093;48.148;8.542;2023-02-12T09:16:24;15.30;;;8.63;;
19861;SDS011;10093;48.148;8.542;2023-02-12T09:18:50;11.90;;;6.70;;
19861;SDS011;10093;48.148;8.542;2023-02-12T09:21:15;7.03;;;4.95;;
19861;SDS011;10093;48.148;8.542;2023-02-12T09:23:43;8.23;;;5.20;;
19861;SDS011;10093;48.148;8.542;2023-02-12T09:26:10;5.93;;;4.07;;
19861;SDS011;10093;48.148;8.542;2023-02-12T09:28:39;6.80;;;4.15;;
19861;SDS011;10093;48.148;8.542;2023-02-12T09:31:08;4.90;;;3.70;;
19861;SDS011;10093;48.148;8.542;2023-02-12T09:33:38;4.90;;;3.67;;
19861;SDS011;10093;48.148;8.542;2023-02-12T09:36:05;4.22;;;3.30;;
19861;SDS011;10093;48.148;8.542;2023-02-12T09:38:33;5.15;;;3.83;;
19861;SDS011;10093;48.148;8.542;2023-02-12T09:48:59;4.38;;;2.70;;
19861;SDS011;10093;48.148;8.542;2023-02-12T09:51:37;10.25;;;5.97;;
19861;SDS011;10093;48.148;8.542;2023-02-12T09:54:05;17.02;;;9.10;;
19861;SDS011;10093;48.148;8.542;2023-02-12T09:56:36;10.40;;;6.68;;
19861;SDS011;10093;48.148;8.542;2023-02-12T09:59:05;5.03;;;3.67;;
19861;SDS011;10093;48.148;8.542;2023-02-12T10:01:32;6.30;;;4.18;;
19861;SDS011;10093;48.148;8.542;2023-02-12T10:03:58;11.63;;;7.22;;
19861;SDS011;10093;48.148;8.542;2023-02-12T10:06:25;8.05;;;4.72;;
19861;SDS011;10093;48.148;8.542;2023-02-12T10:09:59;6.68;;;4.22;;
19861;SDS011;10093;48.148;8.542;2023-02-12T10:14:55;6.97;;;4.13;;
19861;SDS011;10093;48.148;8.542;2023-02-12T10:17:42;5.45;;;3.65;;
19861;SDS011;10093;48.148;8.542;2023-02-12T10:25:54;6.28;;;3.65;;
19861;SDS011;10093;48.148;8.542;2023-02-12T10:28:26;4.88;;;3.35;;
19861;SDS011;10093;48.148;8.542;2023-02-12T10:31:04;7.60;;;4.97;;
19861;SDS011;10093;48.148;8.542;2023-02-12T10:33:38;6.72;;;4.40;;
19861;SDS011;10093;48.148;8.542;2023-02-12T10:36:13;6.78;;;3.95;;
19861;SDS011;10093;48.148;8.542;2023-02-12T10:39:03;9.20;;;5.15;;
19861;SDS011;10093;48.148;8.542;2023-02-12T10:41:31;9.40;;;5.63;;
19861;SDS011;10093;48.148;8.542;2023-02-12T10:44:00;8.10;;;5.45;;
19861;SDS011;10093;48.148;8.542;2023-02-12T10:46:28;10.07;;;6.57;;
19861;SDS011;10093;48.148;8.542;2023-02-12T10:48:55;10.27;;;7.28;;
19861;SDS011;10093;48.148;8.542;2023-02-12T10:51:28;18.63;;;12.68;;
19861;SDS011;10093;48.148;8.542;2023-02-12T10:56:58;31.60;;;16.42;;
19861;SDS011;10093;48.148;8.542;2023-02-12T10:59:30;12.35;;;8.05;;
19861;SDS011;10093;48.148;8.542;2023-02-12T11:01:55;11.18;;;6.15;;
19861;SDS011;10093;48.148;8.542;2023-02-12T11:04:31;9.45;;;6.10;;
19861;SDS011;10093;48.148;8.542;2023-02-12T11:07:04;8.15;;;5.70;;
19861;SDS011;10093;48.148;8.542;2023-02-12T11:12:01;23.42;;;17.00;;
19861;SDS011;10093;48.148;8.542;2023-02-12T11:14:27;7.50;;;4.80;;
19861;SDS011;10093;48.148;8.542;2023-02-12T11:16:55;7.30;;;4.47;;
19861;SDS011;10093;48.148;8.542;2023-02-12T11:19:23;7.63;;;4.90;;
19861;SDS011;10093;48.148;8.542;2023-02-12T11:22:08;11.52;;;4.97;;
19861;SDS011;10093;48.148;8.542;2023-02-12T11:24:38;7.32;;;4.78;;
19861;SDS011;10093;48.148;8.542;2023-02-12T11:27:23;7.13;;;4.93;;
19861;SDS011;10093;48.148;8.542;2023-02-12T11:32:37;13.95;;;7.90;;
19861;SDS011;10093;48.148;8.542;2023-02-12T11:37:34;10.40;;;7.40;;
19861;SDS011;10093;48.148;8.542;2023-02-12T11:40:06;13.88;;;8.18;;
19861;SDS011;10093;48.148;8.542;2023-02-12T11:42:49;11.65;;;7.47;;
19861;SDS011;10093;48.148;8.542;2023-02-12T11:45:23;12.75;;;8.18;;
19861;SDS011;10093;48.148;8.542;2023-02-12T11:47:56;13.50;;;8.13;;
19861;SDS011;10093;48.148;8.542;2023-02-12T11:50:29;13.90;;;9.00;;
19861;SDS011;10093;48.148;8.542;2023-02-12T11:52:57;15.73;;;8.65;;
19861;SDS011;10093;48.148;8.542;2023-02-12T11:55:33;18.10;;;10.93;;
19861;SDS011;10093;48.148;8.542;2023-02-12T12:00:37;14.82;;;9.77;;
19861;SDS011;10093;48.148;8.542;2023-02-12T12:03:33;16.05;;;9.77;;
19861;SDS011;10093;48.148;8.542;2023-02-12T12:21:00;15.00;;;9.50;;
19861;SDS011;10093;48.148;8.542;2023-02-12T12:23:43;13.93;;;9.15;;
19861;SDS011;10093;48.148;8.542;2023-02-12T12:26:15;31.73;;;18.02;;
19861;SDS011;10093;48.148;8.542;2023-02-12T12:29:10;20.35;;;11.93;;
19861;SDS011;10093;48.148;8.542;2023-02-12T12:31:48;17.42;;;10.50;;
19861;SDS011;10093;48.148;8.542;2023-02-12T12:34:19;14.05;;;9.30;;
19861;SDS011;10093;48.148;8.542;2023-02-12T12:47:55;27.45;;;15.60;;
19861;SDS011;10093;48.148;8.542;2023-02-12T12:50:48;21.75;;;12.73;;
19861;SDS011;10093;48.148;8.542;2023-02-12T12:53:39;13.10;;;8.38;;
19861;SDS011;10093;48.148;8.542;2023-02-12T13:15:42;15.07;;;8.90;;
19861;SDS011;10093;48.148;8.542;2023-02-12T13:18:22;12.02;;;8.00;;
19861;SDS011;10093;48.148;8.542;2023-02-12T13:24:05;10.10;;;7.53;;
19861;SDS011;10093;48.148;8.542;2023-02-12T13:26:48;10.25;;;7.00;;
19861;SDS011;10093;48.148;8.542;2023-02-12T13:29:27;8.50;;;6.22;;
19861;SDS011;10093;48.148;8.542;2023-02-12T13:34:47;8.88;;;6.43;;
19861;SDS011;10093;48.148;8.542;2023-02-12T13:37:16;9.50;;;5.85;;
19861;SDS011;10093;48.148;8.542;2023-02-12T13:39:49;10.43;;;6.07;;
19861;SDS011;10093;48.148;8.542;2023-02-12T13:48:12;9.25;;;6.47;;
19861;SDS011;10093;48.148;8.542;2023-02-12T13:59:03;9.48;;;6.05;;
19861;SDS011;10093;48.148;8.542;2023-02-12T14:01:48;9.43;;;6.53;;
19861;SDS011;10093;48.148;8.542;2023-02-12T14:06:50;8.57;;;5.20;;
19861;SDS011;10093;48.148;8.542;2023-02-12T14:12:11;6.80;;;5.18;;
19861;SDS011;10093;48.148;8.542;2023-02-12T14:14:44;6.78;;;5.43;;
19861;SDS011;10093;48.148;8.542;2023-02-12T14:20:06;9.50;;;5.32;;
19861;SDS011;10093;48.148;8.542;2023-02-12T14:25:38;7.43;;;5.68;;
19861;SDS011;10093;48.148;8.542;2023-02-12T14:31:19;7.40;;;5.72;;
19861;SDS011;10093;48.148;8.542;2023-02-12T14:33:42;5.72;;;5.10;;
19861;SDS011;10093;48.148;8.542;2023-02-12T14:36:13;7.60;;;5.22;;
19861;SDS011;10093;48.148;8.542;2023-02-12T14:39:04;7.80;;;5.70;;
19861;SDS011;10093;48.148;8.542;2023-02-12T14:41:48;6.60;;;5.40;;
19861;SDS011;10093;48.148;8.542;2023-02-12T14:47:14;7.88;;;5.70;;
19861;SDS011;10093;48.148;8.542;2023-02-12T14:50:01;7.78;;;5.20;;
19861;SDS011;10093;48.148;8.542;2023-02-12T14:52:45;7.07;;;5.38;;
19861;SDS011;10093;48.148;8.542;2023-02-12T14:55:27;8.40;;;5.50;;
19861;SDS011;10093;48.148;8.542;2023-02-12T14:58:04;6.88;;;5.03;;
19861;SDS011;10093;48.148;8.542;2023-02-12T15:00:38;6.50;;;5.35;;
19861;SDS011;10093;48.148;8.542;2023-02-12T15:05:49;7.03;;;5.13;;
19861;SDS011;10093;48.148;8.542;2023-02-12T15:08:45;6.45;;;5.38;;
19861;SDS011;10093;48.148;8.542;2023-02-12T15:16:37;7.78;;;5.68;;
19861;SDS011;10093;48.148;8.542;2023-02-12T15:24:45;6.68;;;5.28;;
19861;SDS011;10093;48.148;8.542;2023-02-12T15:27:12;7.22;;;5.57;;
19861;SDS011;10093;48.148;8.542;2023-02-12T15:29:47;7.28;;;5.10;;
19861;SDS011;10093;48.148;8.542;2023-02-12T15:34:49;8.07;;;5.60;;
19861;SDS011;10093;48.148;8.542;2023-02-12T15:37:23;8.25;;;5.85;;
19861;SDS011;10093;48.148;8.542;2023-02-12T15:39:52;6.63;;;4.82;;
19861;SDS011;10093;48.148;8.542;2023-02-12T15:42:28;6.45;;;5.28;;
19861;SDS011;10093;48.148;8.542;2023-02-12T15:45:15;6.60;;;5.20;;
19861;SDS011;10093;48.148;8.542;2023-02-12T15:47:43;5.30;;;4.78;;
19861;SDS011;10093;48.148;8.542;2023-02-12T15:50:11;8.32;;;5.18;;
19861;SDS011;10093;48.148;8.542;2023-02-12T15:52:38;5.80;;;4.55;;
19861;SDS011;10093;48.148;8.542;2023-02-12T15:55:13;8.57;;;5.35;;
19861;SDS011;10093;48.148;8.542;2023-02-12T15:57:51;5.57;;;4.53;;
19861;SDS011;10093;48.148;8.542;2023-02-12T16:00:34;5.68;;;4.70;;
19861;SDS011;10093;48.148;8.542;2023-02-12T16:03:24;7.22;;;5.28;;
19861;SDS011;10093;48.148;8.542;2023-02-12T16:05:51;6.50;;;5.13;;
19861;SDS011;10093;48.148;8.542;2023-02-12T16:08:35;7.30;;;5.18;;
19861;SDS011;10093;48.148;8.542;2023-02-12T16:11:01;5.85;;;4.97;;
19861;SDS011;10093;48.148;8.542;2023-02-12T16:13:37;7.03;;;4.88;;
19861;SDS011;10093;48.148;8.542;2023-02-12T16:16:26;8.50;;;5.90;;
19861;SDS011;10093;48.148;8.542;2023-02-12T16:19:04;6.63;;;5.18;;
19861;SDS011;10093;48.148;8.542;2023-02-12T16:21:46;6.10;;;5.13;;
19861;SDS011;10093;48.148;8.542;2023-02-12T16:24:23;7.70;;;4.72;;
19861;SDS011;10093;48.148;8.542;2023-02-12T16:26:57;9.77;;;5.32;;
19861;SDS011;10093;48.148;8.542;2023-02-12T16:29:31;7.53;;;5.55;;
19861;SDS011;10093;48.148;8.542;2023-02-12T16:32:01;8.20;;;5.47;;
19861;SDS011;10093;48.148;8.542;2023-02-12T16:34:32;10.90;;;7.07;;
19861;SDS011;10093;48.148;8.542;2023-02-12T16:37:02;10.05;;;6.47;;
19861;SDS011;10093;48.148;8.542;2023-02-12T16:42:24;9.48;;;6.47;;
19861;SDS011;10093;48.148;8.542;2023-02-12T16:44:53;14.20;;;7.97;;
19861;SDS011;10093;48.148;8.542;2023-02-12T16:47:20;12.02;;;7.78;;
19861;SDS011;10093;48.148;8.542;2023-02-12T16:49:53;22.88;;;14.93;;
19861;SDS011;10093;48.148;8.542;2023-02-12T16:52:33;40.78;;;24.55;;
19861;SDS011;10093;48.148;8.542;2023-02-12T16:55:04;18.67;;;11.85;;
19861;SDS011;10093;48.148;8.542;2023-02-12T16:57:36;15.27;;;9.77;;
19861;SDS011;10093;48.148;8.542;2023-02-12T17:00:03;13.27;;;8.18;;
19861;SDS011;10093;48.148;8.542;2023-02-12T17:02:29;13.57;;;8.27;;
19861;SDS011;10093;48.148;8.542;2023-02-12T17:04:55;17.88;;;9.02;;
19861;SDS011;10093;48.148;8.542;2023-02-12T17:07:25;14.15;;;9.07;;
19861;SDS011;10093;48.148;8.542;2023-02-12T17:09:55;14.00;;;8.60;;
19861;SDS011;10093;48.148;8.542;2023-02-12T17:12:21;14.75;;;9.57;;
19861;SDS011;10093;48.148;8.542;2023-02-12T17:14:46;12.40;;;7.50;;
19861;SDS011;10093;48.148;8.542;2023-02-12T17:17:12;13.38;;;8.38;;
19861;SDS011;10093;48.148;8.542;2023-02-12T17:19:38;14.10;;;8.98;;
19861;SDS011;10093;48.148;8.542;2023-02-12T17:22:03;17.15;;;10.05;;
19861;SDS011;10093;48.148;8.542;2023-02-12T17:24:33;17.35;;;9.65;;
19861;SDS011;10093;48.148;8.542;2023-02-12T17:26:59;16.35;;;9.15;;
19861;SDS011;10093;48.148;8.542;2023-02-12T17:29:26;14.40;;;9.02;;
19861;SDS011;10093;48.148;8.542;2023-02-12T17:31:52;14.60;;;8.95;;
19861;SDS011;10093;48.148;8.542;2023-02-12T17:34:20;16.33;;;9.25;;
19861;SDS011;10093;48.148;8.542;2023-02-12T17:36:46;15.68;;;9.18;;
19861;SDS011;10093;48.148;8.542;2023-02-12T17:39:13;18.65;;;10.00;;
19861;SDS011;10093;48.148;8.542;2023-02-12T17:41:41;15.32;;;8.88;;
19861;SDS011;10093;48.148;8.542;2023-02-12T17:44:08;19.08;;;10.63;;
19861;SDS011;10093;48.148;8.542;2023-02-12T17:46:34;15.88;;;9.27;;